sensor_id;sensor_type;location;lat;lon;timestamp;P1;durP1;ratioP1;P2;durP2;ratioP2
77191;SDS011;66172;48.526;8.078;2023-02-15T00:01:40;70.28;;;15.52;;
77191;SDS011;66172;48.526;8.078;2023-02-15T00:04:07;69.28;;;15.00;;
77191;SDS011;66172;48.526;8.078;2023-02-15T00:06:34;72.32;;;15.65;;
77191;SDS011;66172;48.526;8.078;2023-02-15T00:09:01;82.87;;;15.03;;
77191;SDS011;66172;48.526;8.078;2023-02-15T00:11:28;99.35;;;17.40;;
77191;SDS011;66172;48.526;8.078;2023-02-15T00:16:45;64.78;;;13.80;;
77191;SDS011;66172;48.526;8.078;2023-02-15T00:19:11;58.00;;;14.38;;
77191;SDS011;66172;48.526;8.078;2023-02-15T00:21:38;41.90;;;12.13;;
77191;SDS011;66172;48.526;8.078;2023-02-15T00:24:05;48.72;;;13.18;;
77191;SDS011;66172;48.526;8.078;2023-02-15T00:26:33;57.80;;;13.55;;
77191;SDS011;66172;48.526;8.078;2023-02-15T00:28:59;46.22;;;11.57;;
77191;SDS011;66172;48.526;8.078;2023-02-15T00:31:26;47.95;;;11.70;;
77191;SDS011;66172;48.526;8.078;2023-02-15T00:33:53;39.27;;;11.80;;
77191;SDS011;66172;48.526;8.078;2023-02-15T00:36:19;45.75;;;11.68;;
77191;SDS011;66172;48.526;8.078;2023-02-15T00:38:45;49.80;;;12.10;;
77191;SDS011;66172;48.526;8.078;2023-02-15T00:41:11;51.03;;;12.97;;
77191;SDS011;66172;48.526;8.078;2023-02-15T00:43:37;66.80;;;14.43;;
77191;SDS011;66172;48.526;8.078;2023-02-15T00:46:03;58.22;;;14.93;;
77191;SDS011;66172;48.526;8.078;2023-02-15T00:48:30;58.78;;;14.07;;
77191;SDS011;66172;48.526;8.078;2023-02-15T00:50:57;61.30;;;14.67;;
77191;SDS011;66172;48.526;8.078;2023-02-15T00:53:24;75.63;;;13.53;;
77191;SDS011;66172;48.526;8.078;2023-02-15T00:55:51;74.30;;;15.52;;
77191;SDS011;66172;48.526;8.078;2023-02-15T00:58:18;47.10;;;12.60;;
77191;SDS011;66172;48.526;8.078;2023-02-15T01:00:44;68.30;;;14.27;;
77191;SDS011;66172;48.526;8.078;2023-02-15T01:03:12;49.75;;;13.13;;
77191;SDS011;66172;48.526;8.078;2023-02-15T01:05:39;39.43;;;11.77;;
77191;SDS011;66172;48.526;8.078;2023-02-15T01:08:05;62.25;;;16.10;;
77191;SDS011;66172;48.526;8.078;2023-02-15T01:10:31;36.58;;;11.90;;
77191;SDS011;66172;48.526;8.078;2023-02-15T01:12:59;43.58;;;12.70;;
77191;SDS011;66172;48.526;8.078;2023-02-15T01:15:24;38.83;;;11.73;;
77191;SDS011;66172;48.526;8.078;2023-02-15T01:17:50;44.85;;;11.50;;
77191;SDS011;66172;48.526;8.078;2023-02-15T01:20:21;63.08;;;11.65;;
77191;SDS011;66172;48.526;8.078;2023-02-15T01:22:49;29.20;;;10.43;;
77191;SDS011;66172;48.526;8.078;2023-02-15T01:25:16;30.83;;;11.43;;
77191;SDS011;66172;48.526;8.078;2023-02-15T01:27:42;33.03;;;11.43;;
77191;SDS011;66172;48.526;8.078;2023-02-15T01:30:09;37.70;;;10.93;;
77191;SDS011;66172;48.526;8.078;2023-02-15T01:32:35;30.50;;;9.75;;
77191;SDS011;66172;48.526;8.078;2023-02-15T01:35:01;33.47;;;10.83;;
77191;SDS011;66172;48.526;8.078;2023-02-15T01:37:29;35.37;;;10.90;;
77191;SDS011;66172;48.526;8.078;2023-02-15T01:39:56;33.10;;;11.40;;
77191;SDS011;66172;48.526;8.078;2023-02-15T01:42:23;33.50;;;11.55;;
77191;SDS011;66172;48.526;8.078;2023-02-15T01:44:56;33.58;;;11.05;;
77191;SDS011;66172;48.526;8.078;2023-02-15T01:50:04;40.17;;;12.67;;
77191;SDS011;66172;48.526;8.078;2023-02-15T01:52:36;49.55;;;14.30;;
77191;SDS011;66172;48.526;8.078;2023-02-15T01:55:06;49.28;;;14.60;;
77191;SDS011;66172;48.526;8.078;2023-02-15T01:57:33;48.97;;;15.73;;
77191;SDS011;66172;48.526;8.078;2023-02-15T01:59:59;51.10;;;16.55;;
77191;SDS011;66172;48.526;8.078;2023-02-15T02:02:29;51.03;;;15.20;;
77191;SDS011;66172;48.526;8.078;2023-02-15T02:04:59;52.22;;;14.57;;
77191;SDS011;66172;48.526;8.078;2023-02-15T02:07:33;43.85;;;12.57;;
77191;SDS011;66172;48.526;8.078;2023-02-15T02:10:03;47.75;;;13.60;;
77191;SDS011;66172;48.526;8.078;2023-02-15T02:12:29;55.83;;;13.55;;
77191;SDS011;66172;48.526;8.078;2023-02-15T02:14:56;37.93;;;13.30;;
77191;SDS011;66172;48.526;8.078;2023-02-15T02:17:27;33.10;;;11.80;;
77191;SDS011;66172;48.526;8.078;2023-02-15T02:28:22;29.23;;;10.63;;
77191;SDS011;66172;48.526;8.078;2023-02-15T02:34:08;29.88;;;11.07;;
77191;SDS011;66172;48.526;8.078;2023-02-15T02:39:30;31.20;;;10.45;;
77191;SDS011;66172;48.526;8.078;2023-02-15T02:42:21;34.67;;;11.03;;
77191;SDS011;66172;48.526;8.078;2023-02-15T02:45:00;41.20;;;11.68;;
77191;SDS011;66172;48.526;8.078;2023-02-15T02:47:33;36.75;;;12.18;;
77191;SDS011;66172;48.526;8.078;2023-02-15T02:50:06;41.38;;;12.40;;
77191;SDS011;66172;48.526;8.078;2023-02-15T02:52:39;45.10;;;12.57;;
77191;SDS011;66172;48.526;8.078;2023-02-15T02:55:08;35.03;;;10.50;;
77191;SDS011;66172;48.526;8.078;2023-02-15T02:57:40;38.67;;;11.27;;
77191;SDS011;66172;48.526;8.078;2023-02-15T03:00:16;49.10;;;11.85;;
77191;SDS011;66172;48.526;8.078;2023-02-15T03:02:44;45.78;;;11.07;;
77191;SDS011;66172;48.526;8.078;2023-02-15T03:05:15;62.58;;;12.20;;
77191;SDS011;66172;48.526;8.078;2023-02-15T03:07:46;52.07;;;12.27;;
77191;SDS011;66172;48.526;8.078;2023-02-15T03:10:16;58.10;;;11.88;;
77191;SDS011;66172;48.526;8.078;2023-02-15T03:12:46;68.78;;;12.48;;
77191;SDS011;66172;48.526;8.078;2023-02-15T03:15:14;57.92;;;11.48;;
77191;SDS011;66172;48.526;8.078;2023-02-15T03:17:51;51.28;;;10.55;;
77191;SDS011;66172;48.526;8.078;2023-02-15T03:20:24;33.77;;;10.73;;
77191;SDS011;66172;48.526;8.078;2023-02-15T03:22:55;39.53;;;11.20;;
77191;SDS011;66172;48.526;8.078;2023-02-15T03:25:26;41.45;;;11.75;;
77191;SDS011;66172;48.526;8.078;2023-02-15T03:28:07;39.00;;;11.75;;
77191;SDS011;66172;48.526;8.078;2023-02-15T03:30:36;41.83;;;11.02;;
77191;SDS011;66172;48.526;8.078;2023-02-15T03:33:05;50.97;;;13.70;;
77191;SDS011;66172;48.526;8.078;2023-02-15T03:35:40;62.30;;;13.57;;
77191;SDS011;66172;48.526;8.078;2023-02-15T03:38:13;40.95;;;12.40;;
77191;SDS011;66172;48.526;8.078;2023-02-15T03:40:46;53.75;;;12.18;;
77191;SDS011;66172;48.526;8.078;2023-02-15T03:43:45;37.05;;;11.40;;
77191;SDS011;66172;48.526;8.078;2023-02-15T03:46:17;35.67;;;9.97;;
77191;SDS011;66172;48.526;8.078;2023-02-15T03:48:52;32.63;;;11.10;;
77191;SDS011;66172;48.526;8.078;2023-02-15T03:51:21;36.15;;;10.57;;
77191;SDS011;66172;48.526;8.078;2023-02-15T03:54:04;54.03;;;12.85;;
77191;SDS011;66172;48.526;8.078;2023-02-15T03:56:34;30.80;;;10.45;;
77191;SDS011;66172;48.526;8.078;2023-02-15T03:59:02;39.10;;;11.90;;
77191;SDS011;66172;48.526;8.078;2023-02-15T04:04:36;37.38;;;11.27;;
77191;SDS011;66172;48.526;8.078;2023-02-15T04:07:06;32.65;;;11.20;;
77191;SDS011;66172;48.526;8.078;2023-02-15T04:09:33;31.45;;;11.50;;
77191;SDS011;66172;48.526;8.078;2023-02-15T04:12:17;30.53;;;10.17;;
77191;SDS011;66172;48.526;8.078;2023-02-15T04:14:43;31.90;;;10.30;;
77191;SDS011;66172;48.526;8.078;2023-02-15T04:17:27;34.83;;;10.55;;
77191;SDS011;66172;48.526;8.078;2023-02-15T04:19:53;29.55;;;10.98;;
77191;SDS011;66172;48.526;8.078;2023-02-15T04:22:38;37.40;;;11.97;;
77191;SDS011;66172;48.526;8.078;2023-02-15T04:25:22;40.42;;;11.00;;
77191;SDS011;66172;48.526;8.078;2023-02-15T04:27:49;42.42;;;10.93;;
77191;SDS011;66172;48.526;8.078;2023-02-15T04:30:17;49.50;;;10.27;;
77191;SDS011;66172;48.526;8.078;2023-02-15T04:32:45;45.55;;;11.68;;
77191;SDS011;66172;48.526;8.078;2023-02-15T04:35:11;55.60;;;12.00;;
77191;SDS011;66172;48.526;8.078;2023-02-15T04:37:38;47.83;;;11.30;;
77191;SDS011;66172;48.526;8.078;2023-02-15T04:40:05;53.20;;;11.25;;
77191;SDS011;66172;48.526;8.078;2023-02-15T04:42:32;51.65;;;11.90;;
77191;SDS011;66172;48.526;8.078;2023-02-15T04:44:58;65.20;;;13.47;;
77191;SDS011;66172;48.526;8.078;2023-02-15T04:47:24;54.03;;;13.70;;
77191;SDS011;66172;48.526;8.078;2023-02-15T04:49:50;58.28;;;13.70;;
77191;SDS011;66172;48.526;8.078;2023-02-15T04:52:16;52.33;;;13.00;;
77191;SDS011;66172;48.526;8.078;2023-02-15T04:54:43;85.17;;;13.33;;
77191;SDS011;66172;48.526;8.078;2023-02-15T04:57:10;63.35;;;12.68;;
77191;SDS011;66172;48.526;8.078;2023-02-15T04:59:36;71.40;;;14.68;;
77191;SDS011;66172;48.526;8.078;2023-02-15T05:02:02;69.00;;;13.15;;
77191;SDS011;66172;48.526;8.078;2023-02-15T05:04:28;61.42;;;13.48;;
77191;SDS011;66172;48.526;8.078;2023-02-15T05:06:54;49.40;;;11.80;;
77191;SDS011;66172;48.526;8.078;2023-02-15T05:09:20;48.13;;;11.45;;
77191;SDS011;66172;48.526;8.078;2023-02-15T05:11:46;51.85;;;10.98;;
77191;SDS011;66172;48.526;8.078;2023-02-15T05:14:12;60.50;;;11.87;;
77191;SDS011;66172;48.526;8.078;2023-02-15T05:16:38;63.57;;;11.57;;
77191;SDS011;66172;48.526;8.078;2023-02-15T05:19:04;58.95;;;11.30;;
77191;SDS011;66172;48.526;8.078;2023-02-15T05:21:31;81.07;;;14.65;;
77191;SDS011;66172;48.526;8.078;2023-02-15T05:23:57;69.32;;;13.73;;
77191;SDS011;66172;48.526;8.078;2023-02-15T05:26:23;65.80;;;13.63;;
77191;SDS011;66172;48.526;8.078;2023-02-15T05:29:08;61.33;;;12.50;;
77191;SDS011;66172;48.526;8.078;2023-02-15T05:31:35;53.33;;;12.00;;
77191;SDS011;66172;48.526;8.078;2023-02-15T05:34:02;63.42;;;13.05;;
77191;SDS011;66172;48.526;8.078;2023-02-15T05:36:28;55.15;;;12.45;;
77191;SDS011;66172;48.526;8.078;2023-02-15T05:38:54;67.30;;;13.27;;
77191;SDS011;66172;48.526;8.078;2023-02-15T05:41:20;93.95;;;14.50;;
77191;SDS011;66172;48.526;8.078;2023-02-15T05:43:46;129.77;;;16.85;;
77191;SDS011;66172;48.526;8.078;2023-02-15T05:46:12;60.53;;;12.30;;
77191;SDS011;66172;48.526;8.078;2023-02-15T05:48:38;42.72;;;10.35;;
77191;SDS011;66172;48.526;8.078;2023-02-15T05:51:08;32.23;;;10.93;;
77191;SDS011;66172;48.526;8.078;2023-02-15T05:53:37;39.90;;;12.40;;
77191;SDS011;66172;48.526;8.078;2023-02-15T05:56:04;35.85;;;11.27;;
77191;SDS011;66172;48.526;8.078;2023-02-15T05:58:32;38.22;;;11.20;;
77191;SDS011;66172;48.526;8.078;2023-02-15T06:01:06;37.27;;;11.37;;
77191;SDS011;66172;48.526;8.078;2023-02-15T06:03:33;32.33;;;11.38;;
77191;SDS011;66172;48.526;8.078;2023-02-15T06:05:59;31.92;;;11.18;;
77191;SDS011;66172;48.526;8.078;2023-02-15T06:08:25;33.95;;;11.88;;
77191;SDS011;66172;48.526;8.078;2023-02-15T06:10:51;38.60;;;10.53;;
77191;SDS011;66172;48.526;8.078;2023-02-15T06:13:17;42.28;;;11.63;;
77191;SDS011;66172;48.526;8.078;2023-02-15T06:15:43;50.45;;;11.32;;
77191;SDS011;66172;48.526;8.078;2023-02-15T06:18:09;47.87;;;13.33;;
77191;SDS011;66172;48.526;8.078;2023-02-15T06:20:35;50.45;;;12.57;;
77191;SDS011;66172;48.526;8.078;2023-02-15T06:23:00;46.83;;;13.05;;
77191;SDS011;66172;48.526;8.078;2023-02-15T06:25:26;43.10;;;12.57;;
77191;SDS011;66172;48.526;8.078;2023-02-15T06:27:52;57.60;;;13.47;;
77191;SDS011;66172;48.526;8.078;2023-02-15T06:30:18;45.80;;;13.15;;
77191;SDS011;66172;48.526;8.078;2023-02-15T06:32:44;55.10;;;13.43;;
77191;SDS011;66172;48.526;8.078;2023-02-15T06:35:10;69.47;;;16.20;;
77191;SDS011;66172;48.526;8.078;2023-02-15T06:37:36;48.65;;;15.73;;
77191;SDS011;66172;48.526;8.078;2023-02-15T06:40:02;39.90;;;12.88;;
77191;SDS011;66172;48.526;8.078;2023-02-15T06:42:29;38.63;;;11.35;;
77191;SDS011;66172;48.526;8.078;2023-02-15T06:44:55;35.00;;;10.50;;
77191;SDS011;66172;48.526;8.078;2023-02-15T06:47:21;34.40;;;11.07;;
77191;SDS011;66172;48.526;8.078;2023-02-15T06:49:47;31.67;;;10.68;;
77191;SDS011;66172;48.526;8.078;2023-02-15T06:52:13;33.80;;;11.03;;
77191;SDS011;66172;48.526;8.078;2023-02-15T06:54:39;36.55;;;11.45;;
77191;SDS011;66172;48.526;8.078;2023-02-15T06:57:04;38.30;;;11.18;;
77191;SDS011;66172;48.526;8.078;2023-02-15T06:59:30;35.80;;;10.00;;
77191;SDS011;66172;48.526;8.078;2023-02-15T07:01:56;29.23;;;10.03;;
77191;SDS011;66172;48.526;8.078;2023-02-15T07:04:22;30.45;;;10.90;;
77191;SDS011;66172;48.526;8.078;2023-02-15T07:06:48;30.48;;;10.45;;
77191;SDS011;66172;48.526;8.078;2023-02-15T07:09:14;30.53;;;10.10;;
77191;SDS011;66172;48.526;8.078;2023-02-15T07:11:40;30.23;;;10.35;;
77191;SDS011;66172;48.526;8.078;2023-02-15T07:14:24;30.40;;;9.77;;
77191;SDS011;66172;48.526;8.078;2023-02-15T07:16:50;29.58;;;10.35;;
77191;SDS011;66172;48.526;8.078;2023-02-15T07:19:16;33.10;;;10.60;;
77191;SDS011;66172;48.526;8.078;2023-02-15T07:21:41;29.02;;;9.85;;
77191;SDS011;66172;48.526;8.078;2023-02-15T07:24:07;37.80;;;11.27;;
77191;SDS011;66172;48.526;8.078;2023-02-15T07:26:33;33.47;;;9.93;;
77191;SDS011;66172;48.526;8.078;2023-02-15T07:28:59;45.58;;;11.32;;
77191;SDS011;66172;48.526;8.078;2023-02-15T07:31:25;37.63;;;12.10;;
77191;SDS011;66172;48.526;8.078;2023-02-15T07:33:51;28.47;;;10.90;;
77191;SDS011;66172;48.526;8.078;2023-02-15T07:36:17;36.80;;;12.18;;
77191;SDS011;66172;48.526;8.078;2023-02-15T07:38:43;40.88;;;13.77;;
77191;SDS011;66172;48.526;8.078;2023-02-15T07:41:11;57.80;;;19.40;;
77191;SDS011;66172;48.526;8.078;2023-02-15T07:43:39;62.03;;;16.27;;
77191;SDS011;66172;48.526;8.078;2023-02-15T07:46:08;48.92;;;15.73;;
77191;SDS011;66172;48.526;8.078;2023-02-15T07:48:37;40.00;;;12.38;;
77191;SDS011;66172;48.526;8.078;2023-02-15T07:51:04;38.45;;;12.57;;
77191;SDS011;66172;48.526;8.078;2023-02-15T07:53:32;43.42;;;13.13;;
77191;SDS011;66172;48.526;8.078;2023-02-15T07:55:59;40.23;;;12.80;;
77191;SDS011;66172;48.526;8.078;2023-02-15T07:58:26;31.77;;;12.27;;
77191;SDS011;66172;48.526;8.078;2023-02-15T08:01:12;30.75;;;12.23;;
77191;SDS011;66172;48.526;8.078;2023-02-15T08:03:39;28.73;;;10.45;;
77191;SDS011;66172;48.526;8.078;2023-02-15T08:06:05;30.92;;;11.57;;
77191;SDS011;66172;48.526;8.078;2023-02-15T08:08:33;33.50;;;11.10;;
77191;SDS011;66172;48.526;8.078;2023-02-15T08:11:01;36.75;;;10.60;;
77191;SDS011;66172;48.526;8.078;2023-02-15T08:16:30;34.90;;;11.55;;
77191;SDS011;66172;48.526;8.078;2023-02-15T08:21:37;34.77;;;11.00;;
77191;SDS011;66172;48.526;8.078;2023-02-15T08:24:05;31.73;;;11.20;;
77191;SDS011;66172;48.526;8.078;2023-02-15T08:26:32;36.88;;;14.10;;
77191;SDS011;66172;48.526;8.078;2023-02-15T08:28:59;37.92;;;12.80;;
77191;SDS011;66172;48.526;8.078;2023-02-15T08:31:25;27.48;;;10.85;;
77191;SDS011;66172;48.526;8.078;2023-02-15T08:33:52;26.83;;;10.00;;
77191;SDS011;66172;48.526;8.078;2023-02-15T08:36:20;26.55;;;10.10;;
77191;SDS011;66172;48.526;8.078;2023-02-15T08:38:48;29.63;;;11.13;;
77191;SDS011;66172;48.526;8.078;2023-02-15T08:41:21;31.35;;;11.85;;
77191;SDS011;66172;48.526;8.078;2023-02-15T08:43:50;31.85;;;13.55;;
77191;SDS011;66172;48.526;8.078;2023-02-15T08:46:19;37.10;;;15.30;;
77191;SDS011;66172;48.526;8.078;2023-02-15T08:48:46;40.70;;;14.75;;
77191;SDS011;66172;48.526;8.078;2023-02-15T08:51:13;39.70;;;16.02;;
77191;SDS011;66172;48.526;8.078;2023-02-15T08:53:42;42.45;;;16.23;;
77191;SDS011;66172;48.526;8.078;2023-02-15T08:56:11;45.85;;;15.38;;
77191;SDS011;66172;48.526;8.078;2023-02-15T08:58:37;47.17;;;16.63;;
77191;SDS011;66172;48.526;8.078;2023-02-15T09:01:10;41.92;;;15.98;;
77191;SDS011;66172;48.526;8.078;2023-02-15T09:03:36;46.20;;;15.68;;
77191;SDS011;66172;48.526;8.078;2023-02-15T09:06:02;48.92;;;17.25;;
77191;SDS011;66172;48.526;8.078;2023-02-15T09:08:28;45.88;;;16.55;;
77191;SDS011;66172;48.526;8.078;2023-02-15T09:10:54;52.07;;;17.67;;
77191;SDS011;66172;48.526;8.078;2023-02-15T09:13:33;52.03;;;17.25;;
77191;SDS011;66172;48.526;8.078;2023-02-15T09:16:00;43.28;;;16.50;;
77191;SDS011;66172;48.526;8.078;2023-02-15T09:18:29;49.10;;;16.65;;
77191;SDS011;66172;48.526;8.078;2023-02-15T09:20:56;52.58;;;18.63;;
77191;SDS011;66172;48.526;8.078;2023-02-15T09:23:22;54.40;;;19.07;;
77191;SDS011;66172;48.526;8.078;2023-02-15T09:25:48;66.28;;;21.40;;
77191;SDS011;66172;48.526;8.078;2023-02-15T09:28:14;54.10;;;18.95;;
77191;SDS011;66172;48.526;8.078;2023-02-15T09:30:40;58.07;;;21.07;;
77191;SDS011;66172;48.526;8.078;2023-02-15T09:33:05;55.05;;;19.08;;
77191;SDS011;66172;48.526;8.078;2023-02-15T09:35:31;47.83;;;18.13;;
77191;SDS011;66172;48.526;8.078;2023-02-15T09:37:58;59.30;;;20.63;;
77191;SDS011;66172;48.526;8.078;2023-02-15T09:40:24;61.10;;;19.47;;
77191;SDS011;66172;48.526;8.078;2023-02-15T09:42:54;57.95;;;20.83;;
77191;SDS011;66172;48.526;8.078;2023-02-15T09:54:04;52.97;;;17.67;;
77191;SDS011;66172;48.526;8.078;2023-02-15T09:59:38;42.30;;;15.07;;
77191;SDS011;66172;48.526;8.078;2023-02-15T10:16:22;39.70;;;15.55;;
77191;SDS011;66172;48.526;8.078;2023-02-15T10:22:04;33.75;;;12.77;;
77191;SDS011;66172;48.526;8.078;2023-02-15T10:24:56;30.17;;;12.80;;
77191;SDS011;66172;48.526;8.078;2023-02-15T10:27:46;29.80;;;12.68;;
77191;SDS011;66172;48.526;8.078;2023-02-15T10:30:15;35.05;;;14.25;;
77191;SDS011;66172;48.526;8.078;2023-02-15T10:32:53;34.80;;;13.27;;
77191;SDS011;66172;48.526;8.078;2023-02-15T10:38:19;29.55;;;12.25;;
77191;SDS011;66172;48.526;8.078;2023-02-15T10:46:18;30.90;;;12.97;;
77191;SDS011;66172;48.526;8.078;2023-02-15T10:57:26;31.25;;;13.18;;
77191;SDS011;66172;48.526;8.078;2023-02-15T11:00:15;33.70;;;13.27;;
77191;SDS011;66172;48.526;8.078;2023-02-15T11:05:41;30.55;;;13.52;;
77191;SDS011;66172;48.526;8.078;2023-02-15T11:08:27;37.50;;;13.75;;
77191;SDS011;66172;48.526;8.078;2023-02-15T11:10:59;41.17;;;16.13;;
77191;SDS011;66172;48.526;8.078;2023-02-15T11:13:29;42.47;;;16.83;;
77191;SDS011;66172;48.526;8.078;2023-02-15T11:16:04;39.20;;;15.95;;
77191;SDS011;66172;48.526;8.078;2023-02-15T11:18:37;40.00;;;15.68;;
77191;SDS011;66172;48.526;8.078;2023-02-15T11:23:44;37.53;;;15.55;;
77191;SDS011;66172;48.526;8.078;2023-02-15T11:26:12;34.17;;;15.27;;
77191;SDS011;66172;48.526;8.078;2023-02-15T11:28:54;36.35;;;14.35;;
77191;SDS011;66172;48.526;8.078;2023-02-15T11:31:26;35.10;;;15.73;;
77191;SDS011;66172;48.526;8.078;2023-02-15T11:33:58;37.40;;;15.88;;
77191;SDS011;66172;48.526;8.078;2023-02-15T11:36:41;35.15;;;15.73;;
77191;SDS011;66172;48.526;8.078;2023-02-15T11:39:10;40.00;;;16.73;;
77191;SDS011;66172;48.526;8.078;2023-02-15T11:41:44;38.63;;;16.65;;
77191;SDS011;66172;48.526;8.078;2023-02-15T11:44:24;38.60;;;16.48;;
77191;SDS011;66172;48.526;8.078;2023-02-15T11:46:55;34.60;;;15.55;;
77191;SDS011;66172;48.526;8.078;2023-02-15T11:49:22;41.75;;;16.88;;
77191;SDS011;66172;48.526;8.078;2023-02-15T11:51:54;37.60;;;15.50;;
77191;SDS011;66172;48.526;8.078;2023-02-15T11:54:24;38.47;;;15.98;;
77191;SDS011;66172;48.526;8.078;2023-02-15T11:56:59;38.42;;;16.40;;
77191;SDS011;66172;48.526;8.078;2023-02-15T11:59:37;36.67;;;16.23;;
77191;SDS011;66172;48.526;8.078;2023-02-15T12:02:17;35.55;;;15.43;;
77191;SDS011;66172;48.526;8.078;2023-02-15T12:04:55;42.13;;;17.17;;
77191;SDS011;66172;48.526;8.078;2023-02-15T12:07:25;43.95;;;17.92;;
77191;SDS011;66172;48.526;8.078;2023-02-15T12:12:42;43.13;;;17.23;;
77191;SDS011;66172;48.526;8.078;2023-02-15T12:15:09;39.88;;;17.15;;
77191;SDS011;66172;48.526;8.078;2023-02-15T12:17:54;41.23;;;16.47;;
77191;SDS011;66172;48.526;8.078;2023-02-15T12:22:59;38.85;;;16.08;;
77191;SDS011;66172;48.526;8.078;2023-02-15T12:28:40;39.50;;;16.90;;
77191;SDS011;66172;48.526;8.078;2023-02-15T12:31:18;39.97;;;17.23;;
77191;SDS011;66172;48.526;8.078;2023-02-15T12:33:51;53.03;;;21.52;;
77191;SDS011;66172;48.526;8.078;2023-02-15T12:36:20;50.03;;;21.10;;
77191;SDS011;66172;48.526;8.078;2023-02-15T12:41:43;42.65;;;18.05;;
77191;SDS011;66172;48.526;8.078;2023-02-15T12:44:34;44.50;;;18.63;;
77191;SDS011;66172;48.526;8.078;2023-02-15T12:49:31;40.38;;;16.65;;
77191;SDS011;66172;48.526;8.078;2023-02-15T12:52:00;40.35;;;17.40;;
77191;SDS011;66172;48.526;8.078;2023-02-15T12:59:47;42.50;;;17.60;;
77191;SDS011;66172;48.526;8.078;2023-02-15T13:02:23;40.55;;;17.02;;
77191;SDS011;66172;48.526;8.078;2023-02-15T13:04:52;37.35;;;16.35;;
77191;SDS011;66172;48.526;8.078;2023-02-15T13:07:19;38.47;;;15.95;;
77191;SDS011;66172;48.526;8.078;2023-02-15T13:09:46;35.73;;;16.73;;
77191;SDS011;66172;48.526;8.078;2023-02-15T13:12:23;38.00;;;16.10;;
77191;SDS011;66172;48.526;8.078;2023-02-15T13:14:54;43.67;;;17.67;;
77191;SDS011;66172;48.526;8.078;2023-02-15T13:17:24;37.80;;;16.52;;
77191;SDS011;66172;48.526;8.078;2023-02-15T13:19:55;39.38;;;17.52;;
77191;SDS011;66172;48.526;8.078;2023-02-15T13:22:43;37.90;;;16.83;;
77191;SDS011;66172;48.526;8.078;2023-02-15T13:25:13;40.15;;;17.63;;
77191;SDS011;66172;48.526;8.078;2023-02-15T13:27:43;41.35;;;17.27;;
77191;SDS011;66172;48.526;8.078;2023-02-15T13:30:25;42.33;;;17.92;;
77191;SDS011;66172;48.526;8.078;2023-02-15T13:32:55;41.60;;;18.23;;
77191;SDS011;66172;48.526;8.078;2023-02-15T13:35:25;39.37;;;17.97;;
77191;SDS011;66172;48.526;8.078;2023-02-15T13:41:04;37.22;;;17.35;;
77191;SDS011;66172;48.526;8.078;2023-02-15T13:46:10;39.40;;;17.40;;
77191;SDS011;66172;48.526;8.078;2023-02-15T13:54:17;38.40;;;17.23;;
77191;SDS011;66172;48.526;8.078;2023-02-15T13:57:16;36.35;;;16.38;;
77191;SDS011;66172;48.526;8.078;2023-02-15T14:00:03;41.58;;;17.38;;
77191;SDS011;66172;48.526;8.078;2023-02-15T14:11:38;41.85;;;17.58;;
77191;SDS011;66172;48.526;8.078;2023-02-15T14:16:45;38.47;;;16.37;;
77191;SDS011;66172;48.526;8.078;2023-02-15T14:19:45;39.97;;;16.90;;
77191;SDS011;66172;48.526;8.078;2023-02-15T14:22:24;43.45;;;17.52;;
77191;SDS011;66172;48.526;8.078;2023-02-15T14:25:06;43.88;;;17.30;;
77191;SDS011;66172;48.526;8.078;2023-02-15T14:27:49;42.70;;;17.65;;
77191;SDS011;66172;48.526;8.078;2023-02-15T14:30:20;41.60;;;17.60;;
77191;SDS011;66172;48.526;8.078;2023-02-15T14:32:53;43.35;;;17.10;;
77191;SDS011;66172;48.526;8.078;2023-02-15T14:35:24;42.42;;;17.88;;
77191;SDS011;66172;48.526;8.078;2023-02-15T14:38:02;47.28;;;19.15;;
77191;SDS011;66172;48.526;8.078;2023-02-15T14:43:45;43.43;;;18.17;;
77191;SDS011;66172;48.526;8.078;2023-02-15T14:46:21;44.58;;;18.33;;
77191;SDS011;66172;48.526;8.078;2023-02-15T14:48:56;43.70;;;19.42;;
77191;SDS011;66172;48.526;8.078;2023-02-15T14:51:53;42.47;;;18.15;;
77191;SDS011;66172;48.526;8.078;2023-02-15T14:57:33;41.70;;;17.37;;
77191;SDS011;66172;48.526;8.078;2023-02-15T15:04:41;44.15;;;17.88;;
77191;SDS011;66172;48.526;8.078;2023-02-15T15:07:26;46.43;;;18.57;;
77191;SDS011;66172;48.526;8.078;2023-02-15T15:10:32;44.95;;;18.58;;
77191;SDS011;66172;48.526;8.078;2023-02-15T15:12:53;44.45;;;18.70;;
77191;SDS011;66172;48.526;8.078;2023-02-15T15:18:00;51.15;;;20.88;;
77191;SDS011;66172;48.526;8.078;2023-02-15T15:25:49;44.30;;;18.75;;
77191;SDS011;66172;48.526;8.078;2023-02-15T15:45:31;46.33;;;19.83;;
77191;SDS011;66172;48.526;8.078;2023-02-15T15:51:04;52.00;;;20.48;;
77191;SDS011;66172;48.526;8.078;2023-02-15T15:53:40;49.00;;;20.27;;
77191;SDS011;66172;48.526;8.078;2023-02-15T15:56:13;51.38;;;20.65;;
77191;SDS011;66172;48.526;8.078;2023-02-15T15:58:44;49.78;;;21.20;;
77191;SDS011;66172;48.526;8.078;2023-02-15T16:01:15;53.30;;;21.30;;
77191;SDS011;66172;48.526;8.078;2023-02-15T16:03:48;64.43;;;23.38;;
77191;SDS011;66172;48.526;8.078;2023-02-15T16:06:35;51.95;;;21.45;;
77191;SDS011;66172;48.526;8.078;2023-02-15T16:11:43;92.10;;;33.17;;
77191;SDS011;66172;48.526;8.078;2023-02-15T16:14:11;83.57;;;29.83;;
77191;SDS011;66172;48.526;8.078;2023-02-15T16:16:40;85.68;;;28.60;;
77191;SDS011;66172;48.526;8.078;2023-02-15T16:19:14;82.05;;;25.60;;
77191;SDS011;66172;48.526;8.078;2023-02-15T16:21:46;97.57;;;31.30;;
77191;SDS011;66172;48.526;8.078;2023-02-15T16:27:09;106.63;;;34.00;;
77191;SDS011;66172;48.526;8.078;2023-02-15T16:29:37;88.80;;;31.15;;
77191;SDS011;66172;48.526;8.078;2023-02-15T16:32:04;116.70;;;33.67;;
77191;SDS011;66172;48.526;8.078;2023-02-15T16:34:59;104.47;;;32.92;;
77191;SDS011;66172;48.526;8.078;2023-02-15T16:37:27;131.98;;;38.95;;
77191;SDS011;66172;48.526;8.078;2023-02-15T16:39:57;125.50;;;36.07;;
77191;SDS011;66172;48.526;8.078;2023-02-15T16:42:24;128.70;;;37.92;;
77191;SDS011;66172;48.526;8.078;2023-02-15T16:44:59;129.73;;;36.40;;
77191;SDS011;66172;48.526;8.078;2023-02-15T16:47:31;113.90;;;34.00;;
77191;SDS011;66172;48.526;8.078;2023-02-15T16:50:04;105.30;;;32.90;;
77191;SDS011;66172;48.526;8.078;2023-02-15T16:52:30;106.37;;;31.90;;
77191;SDS011;66172;48.526;8.078;2023-02-15T16:54:58;102.10;;;33.10;;
77191;SDS011;66172;48.526;8.078;2023-02-15T16:57:28;98.13;;;31.35;;
77191;SDS011;66172;48.526;8.078;2023-02-15T17:00:00;88.18;;;29.15;;
77191;SDS011;66172;48.526;8.078;2023-02-15T17:02:33;87.88;;;30.33;;
77191;SDS011;66172;48.526;8.078;2023-02-15T17:07:41;95.97;;;31.85;;
77191;SDS011;66172;48.526;8.078;2023-02-15T17:10:26;88.22;;;30.58;;
77191;SDS011;66172;48.526;8.078;2023-02-15T17:13:01;87.03;;;29.08;;
77191;SDS011;66172;48.526;8.078;2023-02-15T17:15:36;84.25;;;28.63;;
77191;SDS011;66172;48.526;8.078;2023-02-15T17:18:05;72.40;;;26.20;;
77191;SDS011;66172;48.526;8.078;2023-02-15T17:20:38;79.97;;;28.65;;
77191;SDS011;66172;48.526;8.078;2023-02-15T17:25:59;56.92;;;20.05;;
77191;SDS011;66172;48.526;8.078;2023-02-15T17:28:28;69.20;;;27.70;;
77191;SDS011;66172;48.526;8.078;2023-02-15T17:30:56;71.07;;;28.10;;
77191;SDS011;66172;48.526;8.078;2023-02-15T17:33:35;69.47;;;27.60;;